createdAt,value
2023-03-05T00:01:29.161Z,0
2023-03-05T00:03:12.984Z,0
2023-03-05T00:04:56.610Z,0
2023-03-05T00:06:40.342Z,0
2023-03-05T00:08:24.028Z,0
2023-03-05T00:10:07.706Z,0
2023-03-05T00:11:51.501Z,0
2023-03-05T00:13:35.138Z,0
2023-03-05T00:15:18.797Z,0
2023-03-05T00:17:02.575Z,0
2023-03-05T00:18:46.207Z,0
2023-03-05T00:20:29.903Z,0
2023-03-05T00:22:13.598Z,0
2023-03-05T00:23:57.317Z,0
2023-03-05T00:25:40.958Z,0
2023-03-05T00:27:24.759Z,0
2023-03-05T00:29:08.437Z,0
2023-03-05T00:30:52.174Z,0
2023-03-05T00:32:35.761Z,0
2023-03-05T00:34:19.648Z,0
2023-03-05T00:36:03.247Z,0
2023-03-05T00:37:47.013Z,0
2023-03-05T00:39:30.552Z,0
2023-03-05T00:41:14.275Z,0
2023-03-05T00:42:57.964Z,0
2023-03-05T00:44:41.808Z,0
2023-03-05T00:46:25.503Z,0
2023-03-05T00:48:09.161Z,0
2023-03-05T00:49:52.785Z,0
2023-03-05T00:51:36.474Z,1
2023-03-05T00:53:20.278Z,0
2023-03-05T00:55:03.978Z,0
2023-03-05T00:56:47.688Z,0
2023-03-05T00:58:31.317Z,0
2023-03-05T01:00:15.063Z,0
2023-03-05T01:01:58.716Z,0
2023-03-05T01:03:42.456Z,0
2023-03-05T01:05:26.151Z,0
2023-03-05T01:07:09.812Z,0
2023-03-05T01:08:53.488Z,0
2023-03-05T01:10:37.239Z,0
2023-03-05T01:12:20.895Z,0
2023-03-05T01:14:04.735Z,0
2023-03-05T01:15:48.372Z,0
2023-03-05T01:17:32.076Z,0
2023-03-05T01:19:15.733Z,0
2023-03-05T01:20:59.598Z,0
2023-03-05T01:22:43.181Z,0
2023-03-05T01:24:26.960Z,1
2023-03-05T01:26:10.636Z,0
2023-03-05T01:27:54.345Z,1
2023-03-05T01:29:38.040Z,0
2023-03-05T01:31:21.820Z,0
2023-03-05T01:33:05.409Z,0
2023-03-05T01:34:49.137Z,0
2023-03-05T01:36:32.790Z,0
2023-03-05T01:38:16.493Z,0
2023-03-05T01:40:00.174Z,0
2023-03-05T01:41:43.854Z,0
2023-03-05T01:43:27.540Z,0
2023-03-05T01:45:11.289Z,0
2023-03-05T01:46:54.911Z,0
2023-03-05T01:48:38.609Z,0
2023-03-05T01:50:22.437Z,0
2023-03-05T01:52:06.128Z,0
2023-03-05T01:53:49.727Z,0
2023-03-05T01:55:33.444Z,0
2023-03-05T01:57:17.209Z,0
2023-03-05T01:59:00.826Z,0
2023-03-05T02:00:44.540Z,0
2023-03-05T02:02:28.242Z,0
2023-03-05T02:04:12.018Z,1
2023-03-05T02:05:55.698Z,0
2023-03-05T02:07:39.390Z,0
2023-03-05T02:09:23.032Z,0
2023-03-05T02:11:06.750Z,0
2023-03-05T02:12:50.489Z,0
2023-03-05T02:14:34.205Z,0
2023-03-05T02:18:01.581Z,0
2023-03-05T02:19:45.291Z,0
2023-03-05T02:21:29.093Z,0
2023-03-05T02:23:12.672Z,0
2023-03-05T02:24:56.505Z,0
2023-03-05T02:26:40.167Z,0
2023-03-05T02:28:23.823Z,0
2023-03-05T02:30:07.575Z,0
2023-03-05T02:31:51.246Z,0
2023-03-05T02:33:34.870Z,0
2023-03-05T02:35:18.666Z,0
2023-03-05T02:37:02.290Z,0
2023-03-05T02:38:46.040Z,0
2023-03-05T02:40:29.691Z,0
2023-03-05T02:42:13.436Z,0
2023-03-05T02:43:57.075Z,0
2023-03-05T02:45:40.783Z,0
2023-03-05T02:47:24.542Z,0
2023-03-05T02:49:08.185Z,0
2023-03-05T02:50:51.943Z,0
2023-03-05T02:52:35.658Z,0
2023-03-05T02:54:19.283Z,0
2023-03-05T02:56:03.005Z,0
2023-03-05T02:57:46.705Z,0
2023-03-05T02:59:30.429Z,0
2023-03-05T03:01:14.090Z,0
2023-03-05T03:02:57.831Z,0
2023-03-05T03:04:41.566Z,0
2023-03-05T03:06:25.272Z,0
2023-03-05T03:08:08.925Z,0
2023-03-05T03:09:52.614Z,0
2023-03-05T03:11:36.404Z,0
2023-03-05T03:13:20.021Z,0
2023-03-05T03:15:03.761Z,0
2023-03-05T03:16:47.410Z,0
2023-03-05T03:18:31.110Z,0
2023-03-05T03:20:14.839Z,0
2023-03-05T03:21:58.545Z,0
2023-03-05T03:25:25.937Z,0
2023-03-05T03:27:09.702Z,0
2023-03-05T03:28:53.374Z,0
2023-03-05T03:30:37.040Z,0
2023-03-05T03:32:20.818Z,0
2023-03-05T03:34:04.489Z,0
2023-03-05T03:35:48.203Z,1
2023-03-05T03:37:31.899Z,0
2023-03-05T03:39:15.540Z,0
2023-03-05T03:40:59.300Z,0
2023-03-05T03:42:42.952Z,0
2023-03-05T03:44:26.646Z,0
2023-03-05T03:46:10.344Z,1
2023-03-05T03:47:54.042Z,0
2023-03-05T03:49:37.746Z,0
2023-03-05T03:51:21.469Z,0
2023-03-05T03:53:05.151Z,0
2023-03-05T03:54:48.864Z,0
2023-03-05T03:56:32.563Z,0
2023-03-05T03:58:16.272Z,0
2023-03-05T03:59:59.955Z,0
2023-03-05T04:01:43.668Z,0
2023-03-05T04:03:27.390Z,0
2023-03-05T04:05:11.070Z,0
2023-03-05T04:06:54.771Z,0
2023-03-05T04:08:38.545Z,0
2023-03-05T04:10:22.179Z,0
2023-03-05T04:12:05.891Z,0
2023-03-05T04:13:49.584Z,0
2023-03-05T04:15:33.368Z,0
2023-03-05T04:17:16.992Z,0
2023-03-05T04:19:00.713Z,0
2023-03-05T04:20:44.423Z,0
2023-03-05T04:22:28.204Z,0
2023-03-05T04:24:11.879Z,0
2023-03-05T04:25:55.507Z,0
2023-03-05T04:27:39.198Z,0
2023-03-05T04:29:22.924Z,0
2023-03-05T04:31:06.611Z,0
2023-03-05T04:32:50.334Z,0
2023-03-05T04:34:34.043Z,0
2023-03-05T04:36:17.725Z,0
2023-03-05T04:38:01.430Z,0
2023-03-05T04:39:45.134Z,1
2023-03-05T04:41:28.829Z,1
2023-03-05T04:43:12.528Z,0
2023-03-05T04:44:56.412Z,0
2023-03-05T04:46:39.926Z,0
2023-03-05T04:48:23.649Z,0
2023-03-05T04:50:07.337Z,0
2023-03-05T04:51:51.105Z,0
2023-03-05T04:53:34.807Z,0
2023-03-05T04:55:18.435Z,0
2023-03-05T04:57:02.193Z,0
2023-03-05T04:58:45.861Z,0
2023-03-05T05:00:29.576Z,0
2023-03-05T05:02:13.246Z,0
2023-03-05T05:03:57.042Z,0
2023-03-05T05:05:40.737Z,0
2023-03-05T05:07:24.374Z,0
2023-03-05T05:09:08.091Z,0
2023-03-05T05:10:51.745Z,0
2023-03-05T05:12:35.447Z,0
2023-03-05T05:14:19.155Z,0
2023-03-05T05:16:02.831Z,0
2023-03-05T05:17:46.537Z,0
2023-03-05T05:19:30.262Z,0
2023-03-05T05:21:13.987Z,0
2023-03-05T05:22:57.644Z,0
2023-03-05T05:24:41.345Z,0
2023-03-05T05:26:25.068Z,0
2023-03-05T05:28:08.767Z,0
2023-03-05T05:29:52.447Z,0
2023-03-05T05:31:36.174Z,0
2023-03-05T05:33:19.946Z,0
2023-03-05T05:35:03.560Z,0
2023-03-05T05:36:47.389Z,0
2023-03-05T05:38:30.990Z,0
2023-03-05T05:40:14.713Z,0
2023-03-05T05:41:58.383Z,0
2023-03-05T05:43:42.093Z,0
2023-03-05T05:45:25.796Z,0
2023-03-05T05:47:09.511Z,0
2023-03-05T05:48:53.220Z,1
2023-03-05T05:50:36.910Z,0
2023-03-05T05:52:20.602Z,0
2023-03-05T05:54:04.306Z,1
2023-03-05T05:55:48.021Z,0
2023-03-05T05:57:31.745Z,1
2023-03-05T05:59:15.427Z,0
2023-03-05T06:00:59.108Z,0
2023-03-05T06:02:42.823Z,1
2023-03-05T06:04:26.562Z,0
2023-03-05T06:06:10.212Z,2
2023-03-05T06:07:53.939Z,2
2023-03-05T06:09:37.622Z,2
2023-03-05T06:11:21.332Z,2
2023-03-05T06:13:05.028Z,3
2023-03-05T06:14:48.716Z,2
2023-03-05T06:16:32.416Z,3
2023-03-05T06:18:16.129Z,3
2023-03-05T06:19:59.857Z,4
2023-03-05T06:21:43.549Z,5
2023-03-05T06:23:27.256Z,5
2023-03-05T06:25:11.023Z,5
2023-03-05T06:26:54.652Z,6
2023-03-05T06:28:38.371Z,8
2023-03-05T06:30:22.099Z,8
2023-03-05T06:32:05.756Z,9
2023-03-05T06:33:49.494Z,10
2023-03-05T06:35:33.298Z,10
2023-03-05T06:37:16.910Z,11
2023-03-05T06:39:00.657Z,13
2023-03-05T06:40:44.246Z,14
2023-03-05T06:42:28.054Z,14
2023-03-05T06:44:11.682Z,14
2023-03-05T06:45:55.350Z,14
2023-03-05T06:47:39.138Z,16
2023-03-05T06:49:22.799Z,17
2023-03-05T06:51:06.516Z,18
2023-03-05T06:52:50.214Z,19
2023-03-05T06:54:34.014Z,19
2023-03-05T06:56:17.602Z,16
2023-03-05T06:58:01.308Z,14
2023-03-05T06:59:44.972Z,17
2023-03-05T07:01:28.860Z,20
2023-03-05T07:03:12.446Z,19
2023-03-05T07:04:56.228Z,18
2023-03-05T07:06:39.806Z,19
2023-03-05T07:08:23.611Z,21
2023-03-05T07:10:07.186Z,21
2023-03-05T07:11:50.939Z,23
2023-03-05T07:13:34.595Z,22
2023-03-05T07:15:18.379Z,22
2023-03-05T07:17:02.001Z,25
2023-03-05T07:18:45.834Z,28
2023-03-05T07:20:29.399Z,29
2023-03-05T07:22:13.104Z,28
2023-03-05T07:23:56.829Z,28
2023-03-05T07:25:40.490Z,28
2023-03-05T07:27:24.186Z,29
2023-03-05T07:29:07.899Z,29
2023-03-05T07:30:51.610Z,32
2023-03-05T07:32:35.368Z,35
2023-03-05T07:34:19.050Z,36
2023-03-05T07:36:02.819Z,38
2023-03-05T07:37:46.499Z,38
2023-03-05T07:39:30.130Z,38
2023-03-05T07:41:13.828Z,751
2023-03-05T07:42:57.553Z,765
2023-03-05T07:44:41.418Z,775
2023-03-05T07:46:25.006Z,725
2023-03-05T07:48:08.670Z,623
2023-03-05T07:49:52.331Z,662
2023-03-05T07:51:36.207Z,723
2023-03-05T07:53:19.746Z,752
2023-03-05T07:55:03.434Z,771
2023-03-05T07:56:47.258Z,759
2023-03-05T07:58:30.908Z,744
2023-03-05T08:00:14.695Z,755
2023-03-05T08:01:58.313Z,740
2023-03-05T08:03:42.020Z,729
2023-03-05T08:05:25.751Z,709
2023-03-05T08:07:09.548Z,686
2023-03-05T08:08:53.137Z,663
2023-03-05T08:10:36.742Z,642
2023-03-05T08:12:20.547Z,644
2023-03-05T08:14:04.268Z,649
2023-03-05T08:15:47.862Z,665
2023-03-05T08:17:31.554Z,700
2023-03-05T08:19:15.321Z,740
2023-03-05T08:20:58.980Z,776
2023-03-05T08:22:42.729Z,775
2023-03-05T08:24:26.454Z,775
2023-03-05T08:26:10.067Z,776
2023-03-05T08:27:53.820Z,775
2023-03-05T08:29:37.466Z,775
2023-03-05T08:31:21.241Z,775
2023-03-05T08:33:04.925Z,775
2023-03-05T08:34:48.566Z,775
2023-03-05T08:36:32.373Z,775
2023-03-05T08:38:16.033Z,772
2023-03-05T08:39:59.760Z,776
2023-03-05T08:41:43.495Z,775
2023-03-05T08:43:27.082Z,776
2023-03-05T08:45:10.792Z,775
2023-03-05T08:46:54.485Z,775
2023-03-05T08:48:38.189Z,775
2023-03-05T08:50:21.926Z,775
2023-03-05T08:52:05.586Z,775
2023-03-05T08:53:49.276Z,775
2023-03-05T08:55:32.981Z,775
2023-03-05T08:57:16.744Z,775
2023-03-05T08:59:00.411Z,775
2023-03-05T09:00:44.109Z,774
2023-03-05T09:02:27.820Z,775
2023-03-05T09:04:11.504Z,775
2023-03-05T09:05:55.206Z,776
2023-03-05T09:07:38.944Z,775
2023-03-05T09:09:22.631Z,775
2023-03-05T09:11:06.303Z,775
2023-03-05T09:12:50.019Z,775
2023-03-05T09:14:33.713Z,775
2023-03-05T09:16:17.414Z,775
2023-03-05T09:18:01.146Z,774
2023-03-05T09:19:44.812Z,776
2023-03-05T09:21:28.559Z,775
2023-03-05T09:23:12.227Z,775
2023-03-05T09:24:55.911Z,776
2023-03-05T09:26:39.629Z,775
2023-03-05T09:28:23.450Z,776
2023-03-05T09:30:07.031Z,773
2023-03-05T09:31:50.742Z,775
2023-03-05T09:33:34.452Z,775
2023-03-05T09:35:18.137Z,775
2023-03-05T09:37:01.879Z,775
2023-03-05T09:38:45.558Z,777
2023-03-05T09:40:29.228Z,775
2023-03-05T09:42:12.962Z,775
2023-03-05T09:43:56.690Z,775
2023-03-05T09:45:40.353Z,776
2023-03-05T09:47:24.041Z,775
2023-03-05T09:49:07.742Z,775
2023-03-05T09:50:51.457Z,775
2023-03-05T09:52:35.139Z,776
2023-03-05T09:54:18.849Z,776
2023-03-05T09:56:02.545Z,775
2023-03-05T09:57:46.381Z,774
2023-03-05T09:59:29.949Z,775
2023-03-05T10:01:13.701Z,775
2023-03-05T10:02:57.353Z,775
2023-03-05T10:04:41.090Z,775
2023-03-05T10:06:24.735Z,776
2023-03-05T10:08:08.462Z,775
2023-03-05T10:09:52.158Z,775
2023-03-05T10:11:35.855Z,775
2023-03-05T10:13:19.563Z,771
2023-03-05T10:15:03.259Z,775
2023-03-05T10:16:46.963Z,776
2023-03-05T10:18:30.663Z,776
2023-03-05T10:20:14.402Z,775
2023-03-05T10:21:58.157Z,775
2023-03-05T10:23:41.838Z,775
2023-03-05T10:25:25.474Z,776
2023-03-05T10:27:09.205Z,773
2023-03-05T10:28:52.905Z,776
2023-03-05T10:30:36.598Z,776
2023-03-05T10:32:20.301Z,776
2023-03-05T10:34:03.989Z,775
2023-03-05T10:35:47.704Z,775
2023-03-05T10:37:31.406Z,776
2023-03-05T10:39:15.091Z,776
2023-03-05T10:40:58.833Z,774
2023-03-05T10:42:42.619Z,776
2023-03-05T10:44:26.212Z,776
2023-03-05T10:46:09.943Z,776
2023-03-05T10:47:53.635Z,775
2023-03-05T10:49:37.352Z,776
2023-03-05T10:51:21.064Z,776
2023-03-05T10:53:04.733Z,776
2023-03-05T10:54:48.449Z,776
2023-03-05T10:56:32.135Z,775
2023-03-05T10:58:15.804Z,775
2023-03-05T10:59:59.522Z,775
2023-03-05T11:01:43.352Z,774
2023-03-05T11:03:26.937Z,775
2023-03-05T11:05:10.623Z,775
2023-03-05T11:06:54.369Z,775
2023-03-05T11:08:38.096Z,773
2023-03-05T11:10:21.741Z,776
2023-03-05T11:12:05.439Z,775
2023-03-05T11:13:49.126Z,776
2023-03-05T11:15:32.856Z,773
2023-03-05T11:17:16.546Z,776
2023-03-05T11:19:00.240Z,776
2023-03-05T11:20:43.980Z,776
2023-03-05T11:22:27.717Z,775
2023-03-05T11:24:11.356Z,775
2023-03-05T11:25:55.068Z,775
2023-03-05T11:27:38.787Z,776
2023-03-05T11:29:22.476Z,776
2023-03-05T11:31:06.209Z,775
2023-03-05T11:32:49.866Z,776
2023-03-05T11:34:33.570Z,775
2023-03-05T11:36:17.273Z,775
2023-03-05T11:38:00.959Z,776
2023-03-05T11:39:44.746Z,776
2023-03-05T11:41:28.401Z,775
2023-03-05T11:43:12.088Z,776
2023-03-05T11:44:55.778Z,775
2023-03-05T11:46:39.478Z,775
2023-03-05T11:48:23.195Z,776
2023-03-05T11:50:06.908Z,776
2023-03-05T11:51:50.586Z,776
2023-03-05T11:53:34.281Z,776
2023-03-05T11:55:18.144Z,776
2023-03-05T11:57:01.753Z,775
2023-03-05T11:58:45.394Z,776
2023-03-05T12:00:29.146Z,776
2023-03-05T12:02:12.816Z,776
2023-03-05T12:03:56.526Z,776
2023-03-05T12:05:40.217Z,775
2023-03-05T12:07:23.921Z,776
2023-03-05T12:09:07.642Z,776
2023-03-05T12:10:51.379Z,775
2023-03-05T12:12:35.036Z,775
2023-03-05T12:14:18.740Z,776
2023-03-05T12:16:02.484Z,776
2023-03-05T12:17:46.156Z,775
2023-03-05T12:19:29.850Z,776
2023-03-05T12:21:13.559Z,776
2023-03-05T12:22:57.361Z,776
2023-03-05T12:24:40.983Z,776
2023-03-05T12:26:24.668Z,775
2023-03-05T12:28:08.396Z,776
2023-03-05T12:29:52.088Z,775
2023-03-05T12:31:35.793Z,776
2023-03-05T12:33:19.487Z,776
2023-03-05T12:35:03.207Z,776
2023-03-05T12:36:47.032Z,776
2023-03-05T12:38:30.629Z,776
2023-03-05T12:40:14.295Z,776
2023-03-05T12:41:58.115Z,776
2023-03-05T12:43:41.704Z,776
2023-03-05T12:45:25.407Z,775
2023-03-05T12:47:09.131Z,776
2023-03-05T12:48:52.945Z,776
2023-03-05T12:50:36.647Z,775
2023-03-05T12:52:20.267Z,776
2023-03-05T12:54:03.942Z,776
2023-03-05T12:55:47.850Z,776
2023-03-05T12:57:31.440Z,776
2023-03-05T12:59:15.121Z,776
2023-03-05T13:00:58.868Z,776
2023-03-05T13:02:42.608Z,776
2023-03-05T13:04:26.138Z,775
2023-03-05T13:06:09.859Z,777
2023-03-05T13:07:53.640Z,775
2023-03-05T13:09:37.407Z,776
2023-03-05T13:11:20.965Z,775
2023-03-05T13:13:04.760Z,776
2023-03-05T13:14:48.359Z,777
2023-03-05T13:16:32.060Z,776
2023-03-05T13:18:15.857Z,776
2023-03-05T13:19:59.498Z,775
2023-03-05T13:21:43.159Z,775
2023-03-05T13:23:26.928Z,775
2023-03-05T13:25:10.580Z,774
2023-03-05T13:26:54.294Z,775
2023-03-05T13:28:37.981Z,776
2023-03-05T13:30:21.702Z,776
2023-03-05T13:32:05.555Z,775
2023-03-05T13:33:49.088Z,775
2023-03-05T13:35:32.883Z,775
2023-03-05T13:37:16.495Z,775
2023-03-05T13:39:00.324Z,776
2023-03-05T13:40:44.092Z,775
2023-03-05T13:42:27.663Z,773
2023-03-05T13:44:11.484Z,775
2023-03-05T13:45:55.104Z,775
2023-03-05T13:47:38.827Z,775
2023-03-05T13:49:22.442Z,774
2023-03-05T13:51:06.107Z,775
2023-03-05T13:52:49.883Z,776
2023-03-05T13:54:33.532Z,775
2023-03-05T13:56:17.298Z,775
2023-03-05T13:58:00.937Z,775
2023-03-05T13:59:44.626Z,776
2023-03-05T14:01:28.372Z,775
2023-03-05T14:03:12.037Z,775
2023-03-05T14:04:55.734Z,775
2023-03-05T14:06:39.426Z,775
2023-03-05T14:08:23.212Z,775
2023-03-05T14:10:06.845Z,681
2023-03-05T14:11:50.550Z,678
2023-03-05T14:13:34.384Z,776
2023-03-05T14:15:17.963Z,776
2023-03-05T14:17:01.800Z,775
2023-03-05T14:18:45.401Z,775
2023-03-05T14:20:29.065Z,775
2023-03-05T14:22:12.882Z,775
2023-03-05T14:23:56.528Z,775
2023-03-05T14:25:40.152Z,775
2023-03-05T14:27:23.868Z,776
2023-03-05T14:29:07.545Z,776
2023-03-05T14:30:51.298Z,775
2023-03-05T14:32:35.045Z,775
2023-03-05T14:34:18.706Z,776
2023-03-05T14:36:02.471Z,776
2023-03-05T14:37:46.083Z,775
2023-03-05T14:39:29.737Z,775
2023-03-05T14:41:13.465Z,775
2023-03-05T14:42:57.266Z,775
2023-03-05T14:44:41.000Z,776
2023-03-05T14:46:24.554Z,775
2023-03-05T14:48:08.336Z,775
2023-03-05T14:49:52.129Z,775
2023-03-05T14:51:35.668Z,776
2023-03-05T14:53:19.504Z,774
2023-03-05T14:55:03.096Z,775
2023-03-05T14:56:46.786Z,728
2023-03-05T14:58:30.504Z,698
2023-03-05T15:00:14.242Z,695
2023-03-05T15:01:58.012Z,701
2023-03-05T15:03:41.579Z,721
2023-03-05T15:05:25.283Z,681
2023-03-05T15:07:09.034Z,667
2023-03-05T15:08:52.674Z,629
2023-03-05T15:10:36.439Z,596
2023-03-05T15:12:20.135Z,595
2023-03-05T15:14:03.930Z,624
2023-03-05T15:15:47.487Z,663
2023-03-05T15:17:31.233Z,671
2023-03-05T15:19:14.925Z,636
2023-03-05T15:20:58.635Z,569
2023-03-05T15:22:42.279Z,557
2023-03-05T15:24:26.007Z,556
2023-03-05T15:26:09.752Z,570
2023-03-05T15:27:53.403Z,549
2023-03-05T15:29:37.083Z,583
2023-03-05T15:31:20.787Z,635
2023-03-05T15:33:04.602Z,631
2023-03-05T15:34:48.252Z,576
2023-03-05T15:36:32.003Z,498
2023-03-05T15:38:15.703Z,480
2023-03-05T15:39:59.369Z,461
2023-03-05T15:41:43.016Z,449
2023-03-05T15:43:26.742Z,416
2023-03-05T15:45:10.404Z,399
2023-03-05T15:46:54.123Z,396
2023-03-05T15:48:37.941Z,394
2023-03-05T15:50:21.512Z,383
2023-03-05T15:52:05.293Z,369
2023-03-05T15:53:48.974Z,372
2023-03-05T15:55:32.702Z,374
2023-03-05T15:57:16.472Z,363
2023-03-05T15:59:00.172Z,331
2023-03-05T16:00:43.903Z,312
2023-03-05T16:02:27.499Z,309
2023-03-05T16:04:11.160Z,299
2023-03-05T16:05:54.926Z,287
2023-03-05T16:07:38.543Z,274
2023-03-05T16:09:22.316Z,263
2023-03-05T16:11:05.950Z,233
2023-03-05T16:12:49.667Z,210
2023-03-05T16:14:33.482Z,192
2023-03-05T16:16:17.207Z,181
2023-03-05T16:18:00.898Z,173
2023-03-05T16:19:44.618Z,165
2023-03-05T16:21:28.211Z,156
2023-03-05T16:23:11.999Z,145
2023-03-05T16:24:55.749Z,137
2023-03-05T16:26:39.430Z,128
2023-03-05T16:28:23.027Z,122
2023-03-05T16:30:06.774Z,136
2023-03-05T16:31:50.405Z,129
2023-03-05T16:33:34.123Z,114
2023-03-05T16:35:17.771Z,108
2023-03-05T16:37:01.556Z,99
2023-03-05T16:38:45.264Z,99
2023-03-05T16:40:28.894Z,84
2023-03-05T16:42:12.710Z,84
2023-03-05T16:43:56.311Z,85
2023-03-05T16:45:40.064Z,80
2023-03-05T16:47:23.790Z,81
2023-03-05T16:49:07.364Z,79
2023-03-05T16:50:51.081Z,69
2023-03-05T16:52:34.850Z,68
2023-03-05T16:54:18.493Z,59
2023-03-05T16:56:02.247Z,58
2023-03-05T16:57:46.008Z,59
2023-03-05T16:59:29.741Z,54
2023-03-05T17:01:13.358Z,51
2023-03-05T17:02:57.015Z,44
2023-03-05T17:04:40.739Z,38
2023-03-05T17:06:24.399Z,41
2023-03-05T17:08:08.185Z,775
2023-03-05T17:09:51.969Z,774
2023-03-05T17:11:35.602Z,774
2023-03-05T17:13:19.376Z,775
2023-03-05T17:15:03.002Z,775
2023-03-05T17:16:46.781Z,775
2023-03-05T17:18:30.324Z,775
2023-03-05T17:20:14.070Z,774
2023-03-05T17:21:57.734Z,775
2023-03-05T17:23:41.429Z,775
2023-03-05T17:25:25.171Z,772
2023-03-05T17:27:08.906Z,775
2023-03-05T17:28:52.618Z,775
2023-03-05T17:30:36.262Z,775
2023-03-05T17:32:19.951Z,774
2023-03-05T17:34:03.706Z,774
2023-03-05T17:35:47.426Z,775
2023-03-05T17:37:31.097Z,775
2023-03-05T17:39:14.802Z,775
2023-03-05T17:40:58.424Z,775
2023-03-05T17:42:42.234Z,775
2023-03-05T17:44:25.837Z,775
2023-03-05T17:46:09.619Z,776
2023-03-05T17:47:53.316Z,775
2023-03-05T17:49:37.008Z,775
2023-03-05T17:51:20.711Z,775
2023-03-05T17:53:04.340Z,775
2023-03-05T17:54:48.057Z,773
2023-03-05T17:56:31.741Z,775
2023-03-05T17:58:15.456Z,775
2023-03-05T17:59:59.273Z,775
2023-03-05T18:01:42.940Z,775
2023-03-05T18:03:26.564Z,556
2023-03-05T18:05:10.274Z,583
2023-03-05T18:06:53.954Z,580
2023-03-05T18:08:37.732Z,585
2023-03-05T18:10:21.355Z,593
2023-03-05T18:12:05.129Z,775
2023-03-05T18:13:48.778Z,492
2023-03-05T18:15:32.473Z,505
2023-03-05T18:17:16.213Z,461
2023-03-05T18:18:59.961Z,687
2023-03-05T18:20:43.664Z,775
2023-03-05T18:22:27.309Z,775
2023-03-05T18:24:11.062Z,775
2023-03-05T18:25:54.693Z,686
2023-03-05T18:27:38.395Z,775
2023-03-05T18:29:22.076Z,775
2023-03-05T18:31:05.792Z,775
2023-03-05T18:32:49.536Z,776
2023-03-05T18:34:33.193Z,776
2023-03-05T18:36:16.904Z,775
2023-03-05T18:38:00.620Z,775
2023-03-05T18:39:44.304Z,775
2023-03-05T18:41:28.081Z,775
2023-03-05T18:43:11.716Z,775
2023-03-05T18:44:55.406Z,775
2023-03-05T18:46:39.135Z,776
2023-03-05T18:48:22.804Z,775
2023-03-05T18:50:06.500Z,775
2023-03-05T18:51:50.211Z,775
2023-03-05T18:53:33.927Z,775
2023-03-05T18:55:17.678Z,775
2023-03-05T18:57:01.427Z,775
2023-03-05T18:58:45.080Z,775
2023-03-05T19:00:28.738Z,775
2023-03-05T19:02:12.417Z,775
2023-03-05T19:03:56.291Z,776
2023-03-05T19:05:39.837Z,775
2023-03-05T19:07:23.524Z,773
2023-03-05T19:09:07.295Z,776
2023-03-05T19:10:51.097Z,774
2023-03-05T19:12:34.778Z,775
2023-03-05T19:14:18.477Z,775
2023-03-05T19:16:02.035Z,775
2023-03-05T19:17:45.814Z,775
2023-03-05T19:19:29.524Z,775
2023-03-05T19:21:13.244Z,775
2023-03-05T19:22:56.877Z,775
2023-03-05T19:24:40.572Z,775
2023-03-05T19:26:24.365Z,775
2023-03-05T19:28:08.052Z,775
2023-03-05T19:29:51.743Z,775
2023-03-05T19:31:35.420Z,775
2023-03-05T19:33:19.131Z,775
2023-03-05T19:35:02.760Z,776
2023-03-05T19:36:46.580Z,775
2023-03-05T19:38:30.336Z,775
2023-03-05T19:40:14.023Z,774
2023-03-05T19:41:57.696Z,775
2023-03-05T19:43:41.342Z,777
2023-03-05T19:45:24.974Z,776
2023-03-05T19:47:08.754Z,776
2023-03-05T19:48:52.468Z,775
2023-03-05T19:50:36.160Z,775
2023-03-05T19:52:19.757Z,775
2023-03-05T19:54:03.625Z,775
2023-03-05T19:55:47.277Z,775
2023-03-05T19:57:30.979Z,775
2023-03-05T19:59:14.607Z,773
2023-03-05T20:02:42.028Z,776
2023-03-05T20:04:25.888Z,775
2023-03-05T20:06:09.427Z,775
2023-03-05T20:07:53.131Z,775
2023-03-05T20:09:36.798Z,775
2023-03-05T20:11:20.663Z,776
2023-03-05T20:13:04.273Z,775
2023-03-05T20:14:47.977Z,775
2023-03-05T20:16:31.693Z,776
2023-03-05T20:18:15.384Z,776
2023-03-05T20:19:58.990Z,775
2023-03-05T20:21:42.720Z,775
2023-03-05T20:23:26.400Z,775
2023-03-05T20:25:10.108Z,776
2023-03-05T20:26:53.806Z,775
2023-03-05T20:28:37.528Z,775
2023-03-05T20:30:21.286Z,775
2023-03-05T20:32:05.044Z,776
2023-03-05T20:33:48.643Z,775
2023-03-05T20:35:32.392Z,775
2023-03-05T20:37:16.088Z,775
2023-03-05T20:38:59.713Z,775
2023-03-05T20:40:43.572Z,776
2023-03-05T20:42:27.156Z,776
2023-03-05T20:44:10.845Z,776
2023-03-05T20:45:54.567Z,776
2023-03-05T20:47:38.259Z,775
2023-03-05T20:49:21.927Z,775
2023-03-05T20:51:05.639Z,775
2023-03-05T20:52:49.351Z,775
2023-03-05T20:54:33.079Z,775
2023-03-05T20:56:16.729Z,775
2023-03-05T20:58:00.440Z,776
2023-03-05T20:59:44.134Z,775
2023-03-05T21:01:27.839Z,776
2023-03-05T21:03:11.521Z,775
2023-03-05T21:04:55.257Z,775
2023-03-05T21:06:38.964Z,775
2023-03-05T21:08:22.632Z,775
2023-03-05T21:10:06.356Z,775
2023-03-05T21:11:50.084Z,776
2023-03-05T21:13:33.840Z,775
2023-03-05T21:15:17.440Z,775
2023-03-05T21:17:01.197Z,775
2023-03-05T21:18:44.907Z,776
2023-03-05T21:20:28.544Z,776
2023-03-05T21:22:12.357Z,775
2023-03-05T21:23:56.013Z,775
2023-03-05T21:25:39.649Z,775
2023-03-05T21:27:23.347Z,776
2023-03-05T21:29:07.129Z,403
2023-03-05T21:30:50.785Z,775
2023-03-05T21:32:34.522Z,775
2023-03-05T21:34:18.188Z,775
2023-03-05T21:36:01.972Z,775
2023-03-05T21:37:45.570Z,589
2023-03-05T21:39:29.276Z,582
2023-03-05T21:41:13.075Z,593
2023-03-05T21:44:40.394Z,593
2023-03-05T21:46:24.233Z,638
2023-03-05T21:48:07.794Z,776
2023-03-05T21:49:51.493Z,561
2023-03-05T21:51:35.193Z,571
2023-03-05T21:53:18.968Z,610
2023-03-05T21:55:02.625Z,567
2023-03-05T21:56:46.398Z,602
2023-03-05T21:58:29.986Z,648
2023-03-05T22:00:13.715Z,775
2023-03-05T22:01:57.412Z,775
2023-03-05T22:03:41.087Z,775
2023-03-05T22:05:24.798Z,774
2023-03-05T22:07:08.516Z,776
2023-03-05T22:08:52.208Z,0
2023-03-05T22:10:35.909Z,0
2023-03-05T22:12:19.597Z,0
2023-03-05T22:14:03.316Z,0
2023-03-05T22:15:47.186Z,0
2023-03-05T22:17:30.694Z,0
2023-03-05T22:19:14.405Z,1
2023-03-05T22:20:58.105Z,0
2023-03-05T22:22:41.803Z,0
2023-03-05T22:24:25.504Z,0
2023-03-05T22:26:09.230Z,0
2023-03-05T22:27:52.911Z,0
2023-03-05T22:29:36.632Z,0
2023-03-05T22:31:20.308Z,1
2023-03-05T22:33:04.068Z,0
2023-03-05T22:34:47.714Z,1
2023-03-05T22:36:31.513Z,0
2023-03-05T22:38:15.117Z,0
2023-03-05T22:39:58.815Z,0
2023-03-05T22:41:42.532Z,0
2023-03-05T22:43:26.299Z,0
2023-03-05T22:45:09.908Z,0
2023-03-05T22:46:53.629Z,0
2023-03-05T22:48:37.318Z,0
2023-03-05T22:50:21.046Z,0
2023-03-05T22:52:04.787Z,0
2023-03-05T22:53:48.489Z,1
2023-03-05T22:55:32.251Z,0
2023-03-05T22:57:16.009Z,0
2023-03-05T22:58:59.638Z,0
2023-03-05T23:00:43.626Z,0
2023-03-05T23:02:27.028Z,0
2023-03-05T23:04:10.677Z,0
2023-03-05T23:05:54.396Z,0
2023-03-05T23:07:38.062Z,0
2023-03-05T23:09:21.800Z,0
2023-03-05T23:11:05.475Z,0
2023-03-05T23:12:49.202Z,0
2023-03-05T23:14:32.871Z,0
2023-03-05T23:16:16.569Z,0
2023-03-05T23:18:00.342Z,0
2023-03-05T23:19:43.991Z,0
2023-03-05T23:21:27.661Z,0
2023-03-05T23:23:11.471Z,0
2023-03-05T23:24:55.070Z,0
2023-03-05T23:26:38.777Z,0
2023-03-05T23:28:22.484Z,0
2023-03-05T23:30:06.204Z,0
2023-03-05T23:31:49.886Z,0
2023-03-05T23:33:33.695Z,0
2023-03-05T23:35:17.304Z,0
2023-03-05T23:37:01.003Z,0
2023-03-05T23:38:44.694Z,0
2023-03-05T23:40:28.418Z,0
2023-03-05T23:42:12.186Z,0
2023-03-05T23:43:55.789Z,0
2023-03-05T23:45:39.602Z,0
2023-03-05T23:47:23.204Z,0
2023-03-05T23:49:06.984Z,0
2023-03-05T23:50:50.609Z,0
2023-03-05T23:52:34.301Z,0
2023-03-05T23:54:17.985Z,0
2023-03-05T23:56:01.881Z,0
2023-03-05T23:57:45.439Z,0
2023-03-05T23:59:29.135Z,0
